Time;durP1;ratioP1;P1;durP2;ratioP2;P2;SDS_P1;SDS_P2;PMS_P1;PMS_P2;Temp;Humidity;BMP_temperature;BMP_pressure;BME280_temperature;BME280_humidity;BME280_pressure;Samples;Min_cycle;Max_cycle;Signal;HPM_P1;HPM_P2
2023/05/21 00:01:44;;;;;;;7.15;3.25;;;15.60;99.90;;;;;;5022708;28;20081;-90
2023/05/21 00:04:11;;;;;;;4.90;3.08;;;15.60;99.90;;;;;;5038027;28;20045;-90
2023/05/21 00:06:37;;;;;;;7.57;3.38;;;15.80;99.90;;;;;;5035729;28;20037;-90
2023/05/21 00:09:04;;;;;;;8.30;2.92;;;15.60;99.90;;;;;;5036187;28;20037;-91
2023/05/21 00:11:30;;;;;;;6.47;2.83;;;15.60;99.90;;;;;;5028109;28;20069;-90
2023/05/21 00:13:57;;;;;;;5.80;3.13;;;15.50;99.90;;;;;;5035000;28;20034;-90
2023/05/21 00:16:23;;;;;;;9.18;3.10;;;15.50;99.90;;;;;;5031676;28;20491;-90
2023/05/21 00:18:49;;;;;;;4.85;2.97;;;15.50;99.90;;;;;;5026791;28;20033;-90
2023/05/21 00:21:16;;;;;;;8.43;3.00;;;15.50;99.90;;;;;;5035215;28;20029;-90
2023/05/21 00:23:42;;;;;;;6.20;2.88;;;15.50;99.90;;;;;;5025620;28;20117;-88
2023/05/21 00:26:08;;;;;;;6.13;2.90;;;15.50;99.90;;;;;;5029479;28;20160;-90
2023/05/21 00:28:34;;;;;;;6.35;3.22;;;15.50;99.90;;;;;;5036482;28;20121;-90
2023/05/21 00:31:00;;;;;;;5.95;3.38;;;15.50;99.90;;;;;;5019110;28;20045;-88
2023/05/21 00:33:28;;;;;;;6.90;3.05;;;15.50;99.90;;;;;;5016337;28;20029;-89
2023/05/21 00:35:56;;;;;;;6.47;3.33;;;15.50;99.90;;;;;;5032383;28;20049;-88
2023/05/21 00:38:22;;;;;;;9.77;3.80;;;15.50;99.90;;;;;;5034047;28;20625;-90
2023/05/21 00:40:50;;;;;;;6.65;3.50;;;15.50;99.90;;;;;;5036383;28;20034;-89
2023/05/21 00:43:15;;;;;;;7.05;3.13;;;15.40;99.90;;;;;;5005312;28;20046;-90
2023/05/21 00:45:46;;;;;;;6.68;3.15;;;15.40;99.90;;;;;;5032881;28;20045;-89
2023/05/21 00:48:13;;;;;;;8.65;3.67;;;15.40;99.90;;;;;;5038228;28;20053;-90
2023/05/21 00:50:40;;;;;;;6.50;3.40;;;15.40;99.90;;;;;;5034285;28;20052;-90
2023/05/21 00:53:08;;;;;;;7.68;3.53;;;15.40;99.90;;;;;;5026017;28;20473;-91
2023/05/21 00:55:37;;;;;;;5.13;2.92;;;15.40;99.90;;;;;;5037078;28;20041;-89
2023/05/21 00:58:04;;;;;;;5.65;3.45;;;15.30;99.90;;;;;;5036617;28;20033;-90
2023/05/21 01:00:33;;;;;;;12.75;3.78;;;15.30;99.90;;;;;;5032680;28;20041;-89
2023/05/21 01:03:00;;;;;;;6.97;4.10;;;15.30;99.90;;;;;;5035823;28;20101;-90
2023/05/21 01:05:29;;;;;;;5.95;3.85;;;15.30;99.90;;;;;;5030758;28;20077;-90
2023/05/21 01:07:56;;;;;;;10.32;4.10;;;15.30;99.90;;;;;;5028792;28;20116;-90
2023/05/21 01:10:24;;;;;;;6.65;3.28;;;15.30;99.90;;;;;;5041116;28;20108;-89
2023/05/21 01:12:50;;;;;;;5.93;2.95;;;15.20;99.90;;;;;;5028226;28;20045;-90
2023/05/21 01:15:16;;;;;;;5.43;2.72;;;15.20;99.90;;;;;;5023010;28;20052;-89
2023/05/21 01:17:44;;;;;;;7.20;3.28;;;15.20;99.90;;;;;;5025672;28;20045;-90
2023/05/21 01:20:10;;;;;;;5.75;3.20;;;15.20;99.90;;;;;;5040738;28;20476;-89
2023/05/21 01:22:48;;;;;;;9.23;4.75;;;15.20;99.90;;;;;;5025654;28;20180;-88
2023/05/21 01:25:15;;;;;;;9.77;4.25;;;15.20;99.90;;;;;;5031761;28;20069;-89
2023/05/21 01:27:40;;;;;;;8.23;4.18;;;15.10;99.90;;;;;;5034129;28;20030;-89
2023/05/21 01:30:07;;;;;;;9.65;3.55;;;15.10;99.90;;;;;;5029821;28;20780;-89
2023/05/21 01:32:46;;;;;;;8.52;3.85;;;15.10;99.90;;;;;;5033681;28;20046;-89
2023/05/21 01:35:20;;;;;;;7.22;3.65;;;15.20;99.90;;;;;;5024960;28;20053;-89
2023/05/21 01:38:18;;;;;;;7.25;4.22;;;15.20;99.90;;;;;;5028913;28;20044;-90
2023/05/21 01:40:53;;;;;;;6.63;4.00;;;15.20;99.90;;;;;;5029941;28;20080;-90
2023/05/21 01:43:19;;;;;;;9.73;4.03;;;15.10;99.90;;;;;;5030785;28;20052;-89
2023/05/21 01:45:46;;;;;;;6.93;3.85;;;15.10;99.90;;;;;;5014255;28;20037;-89
2023/05/21 01:48:13;;;;;;;7.25;4.40;;;14.90;99.90;;;;;;5033811;28;20153;-90
2023/05/21 01:50:42;;;;;;;9.85;4.50;;;15.00;99.90;;;;;;5012768;28;20046;-89
2023/05/21 01:53:08;;;;;;;7.82;4.07;;;14.90;99.90;;;;;;5030907;28;20049;-89
2023/05/21 01:55:38;;;;;;;5.63;3.45;;;14.90;99.90;;;;;;5035940;28;20033;-88
2023/05/21 01:58:04;;;;;;;7.80;4.53;;;14.90;99.90;;;;;;5017895;28;20088;-90
2023/05/21 02:00:31;;;;;;;5.97;3.28;;;14.90;99.90;;;;;;5035998;28;20073;-90
2023/05/21 02:02:57;;;;;;;6.63;4.18;;;14.80;99.90;;;;;;5035183;28;20135;-90
2023/05/21 02:05:23;;;;;;;9.30;4.90;;;14.80;99.90;;;;;;5038686;28;20029;-89
2023/05/21 02:07:53;;;;;;;9.25;4.95;;;14.80;99.90;;;;;;5039606;28;20045;-89
2023/05/21 02:10:19;;;;;;;7.72;4.22;;;14.70;99.90;;;;;;5043113;28;20096;-89
2023/05/21 02:12:46;;;;;;;14.15;5.22;;;14.70;99.90;;;;;;5035211;28;20080;-89
2023/05/21 02:15:16;;;;;;;7.72;5.15;;;14.70;99.90;;;;;;5037520;28;20045;-89
2023/05/21 02:17:43;;;;;;;8.52;5.03;;;14.60;99.90;;;;;;5032571;28;20503;-88
2023/05/21 02:20:12;;;;;;;8.43;4.35;;;14.70;99.90;;;;;;5035346;28;20058;-89
2023/05/21 02:22:43;;;;;;;7.47;3.78;;;14.70;99.90;;;;;;5033589;28;20041;-89
2023/05/21 02:25:09;;;;;;;8.10;4.47;;;14.70;99.90;;;;;;5026174;28;20112;-89
2023/05/21 02:27:36;;;;;;;9.38;4.45;;;14.70;99.90;;;;;;5034086;28;20116;-88
2023/05/21 02:30:04;;;;;;;8.43;4.40;;;14.70;99.90;;;;;;5030690;28;20033;-88
2023/05/21 02:32:31;;;;;;;9.05;4.82;;;14.70;99.90;;;;;;5033934;28;20044;-88
2023/05/21 02:34:59;;;;;;;8.85;4.57;;;14.70;99.90;;;;;;5032580;28;20065;-89
2023/05/21 02:37:28;;;;;;;7.05;4.45;;;14.70;99.90;;;;;;5024857;28;20037;-88
2023/05/21 02:39:54;;;;;;;9.63;5.88;;;14.80;99.90;;;;;;5032727;28;20092;-88
2023/05/21 02:42:23;;;;;;;7.70;5.00;;;14.70;99.90;;;;;;5032979;28;20052;-87
2023/05/21 02:44:50;;;;;;;10.32;5.32;;;14.70;99.90;;;;;;5029890;28;20049;-87
2023/05/21 02:47:16;;;;;;;9.13;4.80;;;14.70;99.90;;;;;;5033704;28;20072;-87
2023/05/21 02:49:42;;;;;;;9.23;4.50;;;14.70;99.90;;;;;;5029764;28;20056;-88
2023/05/21 02:52:08;;;;;;;9.10;5.05;;;14.70;99.90;;;;;;5027693;28;20492;-88
2023/05/21 02:54:34;;;;;;;6.80;4.22;;;14.70;99.90;;;;;;5014191;28;20045;-88
2023/05/21 02:57:00;;;;;;;8.20;4.40;;;14.70;99.90;;;;;;5021263;28;20049;-88
2023/05/21 02:59:25;;;;;;;8.27;5.47;;;14.60;99.90;;;;;;5025873;28;20042;-87
2023/05/21 03:01:51;;;;;;;8.73;4.72;;;14.60;99.90;;;;;;5020040;28;20060;-88
2023/05/21 03:04:17;;;;;;;7.43;5.18;;;14.60;99.90;;;;;;5031990;28;20342;-88
2023/05/21 03:06:43;;;;;;;9.23;4.93;;;14.60;99.90;;;;;;5030042;28;20045;-87
2023/05/21 03:09:09;;;;;;;10.93;5.95;;;14.60;99.90;;;;;;5041239;28;20061;-88
2023/05/21 03:11:35;;;;;;;8.75;5.65;;;14.60;99.90;;;;;;5031160;28;20053;-88
2023/05/21 03:14:01;;;;;;;8.82;4.13;;;14.60;99.90;;;;;;5036983;28;20037;-88
2023/05/21 03:16:27;;;;;;;14.00;5.68;;;14.60;99.90;;;;;;5034232;28;20045;-88
2023/05/21 03:18:53;;;;;;;12.15;5.65;;;14.60;99.90;;;;;;5030255;28;20041;-87
2023/05/21 03:21:21;;;;;;;9.38;4.97;;;14.50;99.90;;;;;;5036229;28;20033;-87
2023/05/21 03:23:48;;;;;;;9.55;4.97;;;14.50;99.90;;;;;;5015281;28;20048;-88
2023/05/21 03:26:14;;;;;;;9.80;5.20;;;14.50;99.90;;;;;;5019634;28;20125;-87
2023/05/21 03:28:40;;;;;;;9.75;4.93;;;14.40;99.90;;;;;;5011028;28;20457;-87
2023/05/21 03:31:06;;;;;;;9.63;4.93;;;14.50;99.90;;;;;;5030209;28;20064;-88
2023/05/21 03:33:31;;;;;;;8.40;4.68;;;14.60;99.90;;;;;;5028919;28;20072;-87
2023/05/21 03:35:57;;;;;;;9.98;5.20;;;14.50;99.90;;;;;;5027870;28;20037;-88
2023/05/21 03:38:23;;;;;;;8.23;4.90;;;14.50;99.90;;;;;;5019945;28;20072;-88
2023/05/21 03:40:48;;;;;;;10.90;5.38;;;14.60;99.90;;;;;;5034101;28;20096;-88
2023/05/21 03:43:14;;;;;;;10.82;5.50;;;14.40;99.90;;;;;;5027875;28;20054;-87
2023/05/21 03:45:40;;;;;;;9.63;4.72;;;14.40;99.90;;;;;;5034460;28;20068;-88
2023/05/21 03:48:06;;;;;;;10.18;5.75;;;14.40;99.90;;;;;;5034030;28;20049;-88
2023/05/21 03:50:31;;;;;;;7.45;4.80;;;14.40;99.90;;;;;;5029840;28;20452;-87
2023/05/21 03:52:57;;;;;;;8.32;5.43;;;14.50;99.90;;;;;;5025680;28;20064;-88
2023/05/21 03:55:23;;;;;;;8.90;4.63;;;14.40;99.90;;;;;;5024089;28;20125;-87
2023/05/21 03:57:49;;;;;;;9.73;4.95;;;14.40;99.90;;;;;;5021186;28;20463;-87
2023/05/21 04:00:15;;;;;;;9.18;4.50;;;14.40;99.90;;;;;;5026462;28;20037;-87
2023/05/21 04:02:41;;;;;;;12.00;5.78;;;14.40;99.90;;;;;;5023863;28;20033;-87
2023/05/21 04:05:07;;;;;;;10.95;5.63;;;14.40;99.90;;;;;;5028746;28;20081;-87
2023/05/21 04:07:33;;;;;;;12.57;6.47;;;14.40;99.90;;;;;;5030608;28;20052;-88
2023/05/21 04:09:58;;;;;;;11.18;6.03;;;14.40;99.90;;;;;;5027262;28;20034;-87
2023/05/21 04:12:24;;;;;;;13.52;6.22;;;14.40;99.90;;;;;;5021744;28;20126;-87
2023/05/21 04:14:50;;;;;;;11.57;5.18;;;14.40;99.90;;;;;;5021535;28;20042;-88
2023/05/21 04:17:17;;;;;;;10.57;4.75;;;14.40;99.90;;;;;;5030051;28;20633;-87
2023/05/21 04:19:43;;;;;;;9.93;5.65;;;14.40;99.90;;;;;;5027218;28;20068;-87
2023/05/21 04:22:10;;;;;;;17.30;5.78;;;14.40;99.90;;;;;;5024204;28;20077;-87
2023/05/21 04:24:37;;;;;;;10.68;5.40;;;14.40;99.90;;;;;;5021432;28;20459;-88
2023/05/21 04:27:03;;;;;;;11.02;5.70;;;14.40;99.90;;;;;;5027365;28;20030;-87
2023/05/21 04:29:30;;;;;;;8.25;4.53;;;14.40;99.90;;;;;;5037037;28;20038;-87
2023/05/21 04:31:56;;;;;;;10.80;5.80;;;14.40;99.90;;;;;;5022137;28;20065;-87
2023/05/21 04:34:21;;;;;;;11.27;5.15;;;14.40;99.90;;;;;;5038589;28;20042;-87
2023/05/21 04:36:47;;;;;;;12.68;5.50;;;14.50;99.90;;;;;;5017386;28;20476;-87
2023/05/21 04:39:15;;;;;;;7.82;4.93;;;14.40;99.90;;;;;;5026486;28;20045;-87
2023/05/21 04:41:40;;;;;;;12.65;5.90;;;14.50;99.90;;;;;;5021836;28;20041;-87
2023/05/21 04:44:07;;;;;;;9.43;5.05;;;14.40;99.90;;;;;;5023630;28;20053;-87
2023/05/21 04:46:33;;;;;;;10.98;5.47;;;14.40;99.90;;;;;;5031425;28;20044;-87
2023/05/21 04:49:03;;;;;;;8.38;4.72;;;14.40;99.90;;;;;;5028059;28;20041;-86
2023/05/21 04:51:29;;;;;;;9.85;5.00;;;14.40;99.90;;;;;;5023943;28;20073;-87
2023/05/21 04:53:56;;;;;;;11.55;5.28;;;14.50;99.90;;;;;;5026367;28;20041;-88
2023/05/21 04:56:25;;;;;;;10.48;5.60;;;14.50;99.90;;;;;;5024217;28;20041;-87
2023/05/21 04:58:57;;;;;;;8.18;4.82;;;14.50;99.90;;;;;;5034091;28;20045;-87
2023/05/21 05:01:24;;;;;;;9.13;5.35;;;14.50;99.90;;;;;;5028369;28;20591;-86
2023/05/21 05:03:50;;;;;;;9.82;4.88;;;14.50;99.90;;;;;;5034882;28;20049;-87
2023/05/21 05:06:16;;;;;;;8.73;5.22;;;14.50;99.90;;;;;;5033106;28;20043;-86
2023/05/21 05:08:42;;;;;;;10.70;5.20;;;14.50;99.90;;;;;;5031060;28;20053;-85
2023/05/21 05:11:21;;;;;;;11.07;5.00;;;14.50;99.90;;;;;;5031905;28;20079;-86
2023/05/21 05:13:46;;;;;;;9.40;4.97;;;14.60;99.90;;;;;;5028845;28;20037;-86
2023/05/21 05:16:16;;;;;;;8.82;4.72;;;14.60;99.90;;;;;;5021687;28;20048;-87
2023/05/21 05:18:41;;;;;;;10.52;4.72;;;14.60;99.90;;;;;;5000337;28;20042;-86
2023/05/21 05:21:07;;;;;;;10.18;4.63;;;14.60;99.90;;;;;;5028899;28;20132;-87
2023/05/21 05:23:33;;;;;;;10.75;4.57;;;14.60;99.90;;;;;;5027452;28;20056;-87
2023/05/21 05:25:59;;;;;;;9.25;4.80;;;14.60;99.90;;;;;;5026128;28;20404;-87
2023/05/21 05:28:25;;;;;;;11.85;4.85;;;14.60;99.90;;;;;;5016133;28;20464;-87
2023/05/21 05:30:51;;;;;;;9.18;4.55;;;14.60;99.90;;;;;;5018911;28;20095;-85
2023/05/21 05:33:17;;;;;;;11.13;4.55;;;14.60;99.90;;;;;;5023603;28;20044;-86
2023/05/21 05:35:42;;;;;;;10.73;4.32;;;14.60;99.90;;;;;;5023162;28;20068;-86
2023/05/21 05:38:09;;;;;;;8.95;4.35;;;14.70;99.90;;;;;;5024234;28;20534;-86
2023/05/21 05:40:35;;;;;;;8.23;4.78;;;14.70;99.90;;;;;;5024289;28;20088;-88
2023/05/21 05:43:01;;;;;;;8.57;4.30;;;14.70;99.90;;;;;;5018638;28;20097;-85
2023/05/21 05:45:26;;;;;;;7.72;4.13;;;14.70;99.90;;;;;;5013554;28;20193;-86
2023/05/21 05:47:52;;;;;;;8.80;3.97;;;14.70;99.90;;;;;;5022384;28;20045;-86
2023/05/21 05:50:18;;;;;;;8.60;4.40;;;14.70;99.90;;;;;;5018956;28;20121;-86
2023/05/21 05:52:44;;;;;;;9.35;5.22;;;14.70;99.90;;;;;;5025062;28;20033;-86
2023/05/21 05:55:10;;;;;;;8.50;4.43;;;14.70;99.90;;;;;;5023155;28;20038;-85
2023/05/21 05:57:36;;;;;;;10.88;4.43;;;14.70;99.90;;;;;;5002506;28;20038;-86
2023/05/21 06:00:03;;;;;;;8.38;4.05;;;14.70;99.90;;;;;;5018989;28;20392;-86
2023/05/21 06:02:29;;;;;;;15.32;4.85;;;14.70;99.90;;;;;;5020186;28;20100;-86
2023/05/21 06:04:57;;;;;;;9.15;3.92;;;14.80;99.90;;;;;;5024844;28;20037;-85
2023/05/21 06:07:23;;;;;;;9.07;4.13;;;14.80;99.90;;;;;;5020284;28;20072;-84
2023/05/21 06:09:48;;;;;;;8.98;4.10;;;14.80;99.90;;;;;;5013922;28;20096;-84
2023/05/21 06:12:14;;;;;;;10.63;4.15;;;14.80;99.90;;;;;;5022691;28;20054;-84
2023/05/21 06:14:41;;;;;;;8.95;4.72;;;14.90;99.90;;;;;;5003446;28;20059;-84
2023/05/21 06:17:07;;;;;;;7.75;3.97;;;14.90;99.90;;;;;;5018501;28;20037;-86
2023/05/21 06:19:33;;;;;;;8.18;4.78;;;14.90;99.90;;;;;;5017253;28;20052;-86
2023/05/21 06:21:58;;;;;;;11.75;4.25;;;15.00;99.90;;;;;;5016210;28;20037;-85
2023/05/21 06:24:25;;;;;;;11.55;6.03;;;15.00;99.90;;;;;;5019238;28;20124;-83
2023/05/21 06:26:51;;;;;;;7.80;3.85;;;15.00;99.90;;;;;;5017554;28;20080;-84
2023/05/21 06:29:16;;;;;;;8.75;4.40;;;15.10;99.90;;;;;;5017187;28;20073;-84
2023/05/21 06:31:43;;;;;;;8.95;4.50;;;15.10;99.90;;;;;;5015913;28;20113;-84
2023/05/21 06:34:10;;;;;;;10.38;4.78;;;15.10;99.90;;;;;;5020068;28;20077;-83
2023/05/21 06:36:36;;;;;;;9.13;3.97;;;15.20;99.90;;;;;;5008596;28;20534;-82
2023/05/21 06:39:02;;;;;;;7.57;3.90;;;15.20;99.90;;;;;;5022983;28;20065;-84
2023/05/21 06:41:28;;;;;;;12.20;4.80;;;15.20;99.90;;;;;;5028727;28;20072;-84
2023/05/21 06:43:53;;;;;;;9.80;4.75;;;15.20;99.90;;;;;;5024494;28;20077;-85
2023/05/21 06:46:19;;;;;;;9.73;4.50;;;15.30;99.90;;;;;;5004915;28;20052;-86
2023/05/21 06:48:46;;;;;;;9.40;4.97;;;15.30;99.90;;;;;;5020624;28;20507;-84
2023/05/21 06:51:12;;;;;;;8.73;4.35;;;15.30;99.90;;;;;;5023368;28;20115;-84
2023/05/21 06:53:37;;;;;;;8.38;3.92;;;15.30;99.90;;;;;;5023651;28;20042;-85
2023/05/21 06:56:04;;;;;;;8.25;4.43;;;15.30;99.90;;;;;;5032235;28;20045;-86
2023/05/21 06:58:30;;;;;;;10.85;4.40;;;15.30;99.90;;;;;;5005077;28;20029;-85
2023/05/21 07:00:57;;;;;;;8.38;4.05;;;15.40;99.90;;;;;;5027277;28;20037;-85
2023/05/21 07:03:23;;;;;;;7.40;4.32;;;15.40;99.90;;;;;;5011269;28;20052;-85
2023/05/21 07:05:49;;;;;;;8.80;4.18;;;15.40;99.90;;;;;;5024826;28;20029;-84
2023/05/21 07:08:15;;;;;;;9.38;4.10;;;15.40;99.90;;;;;;5028301;28;20044;-86
2023/05/21 07:10:44;;;;;;;6.93;3.63;;;15.50;99.90;;;;;;5027623;28;20117;-85
2023/05/21 07:13:11;;;;;;;6.05;3.47;;;15.50;99.90;;;;;;5022434;28;20078;-86
2023/05/21 07:15:37;;;;;;;8.32;4.75;;;15.50;99.90;;;;;;5040015;28;20034;-85
2023/05/21 07:18:03;;;;;;;10.15;4.97;;;15.60;99.90;;;;;;5032499;28;20323;-86
2023/05/21 07:20:30;;;;;;;6.32;3.88;;;15.60;99.90;;;;;;5028967;28;20045;-86
2023/05/21 07:22:56;;;;;;;11.60;4.93;;;15.70;99.90;;;;;;5028269;28;20034;-86
2023/05/21 07:25:23;;;;;;;7.90;3.92;;;15.70;99.90;;;;;;5020612;28;20048;-85
2023/05/21 07:27:48;;;;;;;8.15;4.38;;;15.80;99.90;;;;;;5029928;28;20044;-86
2023/05/21 07:30:14;;;;;;;8.10;4.63;;;15.80;99.90;;;;;;5011269;28;20107;-86
2023/05/21 07:32:40;;;;;;;7.90;3.72;;;15.80;99.90;;;;;;5030310;28;20455;-85
2023/05/21 07:35:06;;;;;;;9.73;4.57;;;15.90;99.90;;;;;;5026585;28;20168;-85
2023/05/21 07:37:32;;;;;;;8.80;4.35;;;15.90;99.90;;;;;;5028155;28;20065;-85
2023/05/21 07:39:58;;;;;;;8.48;3.80;;;16.00;99.90;;;;;;5028471;28;20370;-85
2023/05/21 07:42:24;;;;;;;7.30;4.22;;;16.10;99.90;;;;;;5031910;28;20060;-85
2023/05/21 07:44:50;;;;;;;11.35;4.82;;;16.10;99.90;;;;;;5030363;28;20037;-84
2023/05/21 07:47:16;;;;;;;10.15;4.05;;;16.20;99.90;;;;;;5009830;28;20069;-86
2023/05/21 07:49:42;;;;;;;10.57;4.45;;;16.20;99.90;;;;;;5032769;28;20048;-84
2023/05/21 07:52:08;;;;;;;7.50;4.63;;;16.20;99.90;;;;;;5030087;28;20037;-84
2023/05/21 07:54:34;;;;;;;9.85;4.78;;;16.30;99.90;;;;;;5038044;28;20029;-82
2023/05/21 07:57:03;;;;;;;9.40;5.05;;;16.30;99.90;;;;;;5006132;28;20050;-85
2023/05/21 07:59:28;;;;;;;11.00;4.40;;;16.40;99.90;;;;;;5031358;28;20044;-85
2023/05/21 08:01:54;;;;;;;14.05;4.40;;;16.40;99.90;;;;;;5031542;28;20049;-85
2023/05/21 08:04:20;;;;;;;10.18;4.72;;;16.50;99.90;;;;;;5014950;28;20049;-85
2023/05/21 08:06:47;;;;;;;9.45;4.10;;;16.50;99.90;;;;;;5027061;28;20038;-85
2023/05/21 08:09:13;;;;;;;8.55;4.28;;;16.60;99.90;;;;;;5035828;28;20037;-85
2023/05/21 08:11:39;;;;;;;10.38;4.07;;;16.60;99.90;;;;;;5033600;28;20125;-86
2023/05/21 08:14:06;;;;;;;9.90;4.00;;;16.60;99.90;;;;;;5039113;28;20142;-86
2023/05/21 08:16:32;;;;;;;8.90;4.18;;;16.70;99.90;;;;;;5028267;28;20048;-83
2023/05/21 08:18:58;;;;;;;9.85;4.43;;;16.80;99.90;;;;;;5013738;28;20124;-83
2023/05/21 08:21:24;;;;;;;9.75;4.18;;;16.80;99.90;;;;;;5028387;28;20046;-86
2023/05/21 08:23:53;;;;;;;9.70;4.28;;;16.80;99.90;;;;;;5026610;28;20104;-85
2023/05/21 08:26:19;;;;;;;7.40;3.97;;;16.90;99.90;;;;;;5031432;28;20041;-85
2023/05/21 08:28:45;;;;;;;10.13;4.72;;;16.90;99.90;;;;;;5025396;28;20124;-84
2023/05/21 08:31:11;;;;;;;8.75;4.35;;;17.00;99.90;;;;;;5029739;28;20121;-84
2023/05/21 08:33:37;;;;;;;9.35;5.25;;;17.00;99.90;;;;;;5028335;28;20042;-84
2023/05/21 08:36:07;;;;;;;8.38;5.07;;;17.00;99.90;;;;;;5024919;28;20042;-85
2023/05/21 08:38:36;;;;;;;12.07;4.43;;;17.00;99.90;;;;;;5029270;28;20216;-86
2023/05/21 08:41:06;;;;;;;11.48;4.82;;;17.10;99.90;;;;;;5029117;28;20045;-86
2023/05/21 08:43:33;;;;;;;10.43;4.40;;;17.10;99.90;;;;;;5032021;28;20396;-86
2023/05/21 08:46:02;;;;;;;9.55;4.35;;;17.20;99.90;;;;;;5018468;28;20160;-84
2023/05/21 08:48:30;;;;;;;7.97;4.32;;;17.30;99.90;;;;;;5025571;28;20153;-84
2023/05/21 08:50:57;;;;;;;9.20;4.40;;;17.40;99.90;;;;;;5018750;28;20049;-85
2023/05/21 08:53:26;;;;;;;6.88;4.53;;;17.50;99.90;;;;;;5024468;28;20475;-84
2023/05/21 08:55:54;;;;;;;8.40;4.30;;;17.50;99.90;;;;;;5027281;28;20049;-85
2023/05/21 08:58:23;;;;;;;10.90;4.40;;;17.70;99.90;;;;;;5021250;28;20049;-82
2023/05/21 09:00:49;;;;;;;9.52;4.28;;;17.80;99.90;;;;;;5025183;28;20029;-86
2023/05/21 09:03:15;;;;;;;8.90;3.95;;;17.80;99.90;;;;;;5023539;28;20056;-86
2023/05/21 09:05:42;;;;;;;10.13;5.40;;;17.90;99.90;;;;;;5025108;28;20053;-85
2023/05/21 09:08:13;;;;;;;7.45;4.47;;;18.00;99.90;;;;;;5009905;28;20096;-86
2023/05/21 09:10:50;;;;;;;7.43;4.20;;;18.10;99.90;;;;;;5027852;28;20033;-86
2023/05/21 09:13:17;;;;;;;8.73;4.43;;;18.20;99.90;;;;;;5027667;28;20049;-86
2023/05/21 09:15:46;;;;;;;10.30;5.07;;;18.30;99.90;;;;;;5034782;28;20080;-85
2023/05/21 09:18:13;;;;;;;11.20;4.55;;;18.30;99.90;;;;;;5030128;28;20042;-85
2023/05/21 09:20:39;;;;;;;7.35;4.25;;;18.40;99.90;;;;;;5031764;28;20048;-85
2023/05/21 09:23:11;;;;;;;13.57;5.35;;;18.40;99.90;;;;;;5012322;28;20052;-85
2023/05/21 09:25:37;;;;;;;12.55;5.15;;;18.50;99.90;;;;;;5027096;28;20092;-85
2023/05/21 09:28:10;;;;;;;8.65;4.88;;;18.50;99.90;;;;;;5029431;28;20116;-86
2023/05/21 09:30:35;;;;;;;10.55;3.75;;;18.50;99.90;;;;;;5017369;28;20060;-85
2023/05/21 09:33:02;;;;;;;8.10;4.28;;;18.50;99.90;;;;;;5023373;28;20045;-85
2023/05/21 09:35:27;;;;;;;8.02;4.43;;;18.50;99.90;;;;;;5027676;28;20033;-84
2023/05/21 09:37:56;;;;;;;10.00;5.05;;;18.60;99.90;;;;;;5020709;28;20520;-85
2023/05/21 09:40:22;;;;;;;9.43;5.13;;;18.70;99.90;;;;;;5023379;28;20366;-84
2023/05/21 09:42:50;;;;;;;10.48;4.97;;;18.70;99.90;;;;;;5021646;28;20045;-82
2023/05/21 09:45:23;;;;;;;8.20;4.93;;;18.80;99.90;;;;;;5034278;28;20033;-85
2023/05/21 09:47:50;;;;;;;9.95;4.65;;;18.80;99.90;;;;;;5020909;28;20065;-86
2023/05/21 09:50:23;;;;;;;7.07;4.22;;;18.90;99.90;;;;;;5022597;28;20081;-84
2023/05/21 09:52:51;;;;;;;7.95;3.83;;;18.90;99.90;;;;;;5030314;28;20101;-88
2023/05/21 09:55:21;;;;;;;9.45;4.07;;;18.90;99.90;;;;;;5030891;28;20044;-88
2023/05/21 09:57:48;;;;;;;7.43;4.35;;;19.00;99.90;;;;;;5036006;28;20056;-86
2023/05/21 10:00:17;;;;;;;9.32;4.68;;;19.10;99.90;;;;;;5030378;28;20046;-85
2023/05/21 10:02:48;;;;;;;8.90;4.85;;;19.20;99.90;;;;;;5031404;28;20106;-90
2023/05/21 10:05:15;;;;;;;9.38;4.50;;;19.30;99.90;;;;;;5032733;28;20049;-82
2023/05/21 10:07:46;;;;;;;7.95;4.30;;;19.30;99.90;;;;;;5023111;28;20492;-87
2023/05/21 10:10:16;;;;;;;9.00;4.47;;;19.30;99.90;;;;;;5033784;28;20073;-87
2023/05/21 10:12:45;;;;;;;11.50;5.15;;;19.30;99.90;;;;;;5029204;28;20041;-88
2023/05/21 10:15:19;;;;;;;7.93;4.00;;;19.30;99.90;;;;;;5022329;28;20037;-87
2023/05/21 10:17:47;;;;;;;9.15;3.92;;;19.50;99.90;;;;;;5030545;28;20052;-86
2023/05/21 10:20:13;;;;;;;9.20;4.22;;;19.60;99.90;;;;;;5027743;28;20372;-86
2023/05/21 10:22:40;;;;;;;11.50;4.43;;;19.70;99.90;;;;;;5009565;28;20481;-87
2023/05/21 10:25:07;;;;;;;6.82;4.63;;;19.80;99.90;;;;;;5064212;22;20318;-85
2023/05/21 10:27:34;;;;;;;10.90;4.53;;;19.90;99.90;;;;;;5003965;28;20034;-93
2023/05/21 10:30:01;;;;;;;6.78;4.10;;;20.10;99.90;;;;;;5010411;28;20038;-94
2023/05/21 10:32:27;;;;;;;9.27;4.50;;;20.20;99.90;;;;;;5005459;28;20101;-89
2023/05/21 10:34:53;;;;;;;9.35;4.75;;;20.20;99.90;;;;;;5011932;28;20062;-88
2023/05/21 10:37:23;;;;;;;7.53;4.18;;;20.30;99.90;;;;;;5016700;28;20042;-93
2023/05/21 10:39:51;;;;;;;7.05;4.32;;;20.40;99.90;;;;;;4997942;28;20058;-86
2023/05/21 10:42:23;;;;;;;8.65;4.55;;;20.50;99.90;;;;;;5012222;28;20049;-88
2023/05/21 10:45:11;;;;;;;7.90;4.20;;;20.60;99.90;;;;;;5013690;28;20045;-88
2023/05/21 10:47:45;;;;;;;8.10;3.88;;;20.70;99.90;;;;;;5015825;28;20044;-87
2023/05/21 10:50:53;;;;;;;8.05;4.70;;;20.80;99.90;;;;;;5012151;28;20038;-87
2023/05/21 10:53:57;;;;;;;11.35;4.45;;;20.90;99.90;;;;;;5006131;28;20411;-88
2023/05/21 10:56:45;;;;;;;9.55;5.10;;;21.00;99.90;;;;;;5017282;28;20046;-85
2023/05/21 10:59:35;;;;;;;9.23;4.65;;;21.10;99.90;;;;;;5009918;28;20080;-86
2023/05/21 11:02:02;;;;;;;9.13;4.30;;;21.20;99.90;;;;;;5016576;28;20065;-87
2023/05/21 11:04:28;;;;;;;10.95;4.32;;;21.30;99.90;;;;;;5009812;28;20078;-85
2023/05/21 11:06:57;;;;;;;8.88;4.32;;;21.40;99.90;;;;;;5019801;28;20420;-83
2023/05/21 11:09:23;;;;;;;10.32;4.38;;;21.40;99.90;;;;;;5003717;28;20035;-84
2023/05/21 11:11:50;;;;;;;8.65;4.25;;;21.50;99.90;;;;;;5005901;28;20132;-84
2023/05/21 11:14:39;;;;;;;8.82;4.78;;;21.60;99.90;;;;;;4992347;28;20170;-84
2023/05/21 11:17:08;;;;;;;11.82;5.28;;;21.70;99.90;;;;;;5005636;28;20120;-83
2023/05/21 11:19:47;;;;;;;9.52;4.63;;;21.80;99.90;;;;;;4982975;28;20054;-83
2023/05/21 11:22:24;;;;;;;9.20;5.32;;;21.80;99.90;;;;;;5008185;28;20038;-82
2023/05/21 11:24:51;;;;;;;9.70;5.07;;;21.80;99.90;;;;;;4994592;28;20233;-83
2023/05/21 11:27:41;;;;;;;9.45;4.30;;;21.80;99.90;;;;;;5009461;28;20481;-84
2023/05/21 11:30:17;;;;;;;10.30;6.00;;;21.80;99.90;;;;;;5007053;28;20524;-84
2023/05/21 11:33:12;;;;;;;9.82;5.00;;;21.70;99.90;;;;;;5003844;28;20050;-84
2023/05/21 11:35:43;;;;;;;10.23;5.57;;;21.70;99.90;;;;;;5010872;28;20090;-84
2023/05/21 11:38:09;;;;;;;9.43;5.97;;;21.70;99.90;;;;;;5010620;28;20523;-82
2023/05/21 11:40:35;;;;;;;11.43;6.20;;;21.80;99.90;;;;;;4996223;28;20038;-84
2023/05/21 11:43:01;;;;;;;11.73;5.45;;;21.80;99.90;;;;;;5006734;28;20034;-84
2023/05/21 11:45:30;;;;;;;9.07;5.70;;;21.80;99.90;;;;;;5000932;28;20066;-84
2023/05/21 11:47:56;;;;;;;10.25;5.80;;;21.80;99.90;;;;;;5006722;28;20093;-84
2023/05/21 11:50:22;;;;;;;10.65;5.45;;;22.00;99.90;;;;;;5006379;28;20050;-84
2023/05/21 11:52:49;;;;;;;14.82;5.90;;;22.10;99.90;;;;;;5003005;28;20042;-84
2023/05/21 11:55:19;;;;;;;10.60;5.85;;;22.20;99.90;;;;;;5006612;28;20049;-84
2023/05/21 11:57:46;;;;;;;11.52;6.05;;;22.30;99.90;;;;;;4997963;28;20034;-84
2023/05/21 12:00:14;;;;;;;10.18;6.10;;;22.40;99.90;;;;;;5003356;28;20041;-84
2023/05/21 12:02:49;;;;;;;11.98;6.38;;;22.50;99.90;;;;;;5005566;28;20038;-84
2023/05/21 12:05:15;;;;;;;11.50;6.53;;;22.60;99.90;;;;;;5008475;28;20053;-84
2023/05/21 12:07:41;;;;;;;9.68;5.82;;;22.60;99.90;;;;;;5000194;28;20050;-84
2023/05/21 12:10:07;;;;;;;11.20;6.80;;;22.60;99.90;;;;;;5000639;28;20070;-83
2023/05/21 12:12:33;;;;;;;11.52;6.18;;;22.70;99.90;;;;;;5003901;28;20085;-83
2023/05/21 12:15:01;;;;;;;13.55;7.18;;;22.70;99.90;;;;;;5006042;28;20053;-83
2023/05/21 12:17:27;;;;;;;12.43;6.22;;;22.80;99.90;;;;;;5004832;28;20064;-82
2023/05/21 12:19:55;;;;;;;12.07;6.35;;;22.90;99.90;;;;;;5010884;28;20042;-83
2023/05/21 12:22:23;;;;;;;12.10;7.38;;;22.90;99.90;;;;;;5003879;28;20077;-82
2023/05/21 12:24:50;;;;;;;10.90;7.60;;;23.00;99.90;;;;;;5001117;28;20054;-83
2023/05/21 12:27:17;;;;;;;12.93;8.07;;;23.10;99.90;;;;;;5002394;28;20048;-83
2023/05/21 12:29:44;;;;;;;18.35;8.95;;;23.20;99.90;;;;;;4993526;28;20045;-83
2023/05/21 12:32:12;;;;;;;12.38;8.88;;;23.10;99.90;;;;;;5005879;28;20052;-83
2023/05/21 12:34:51;;;;;;;14.85;8.38;;;23.10;99.90;;;;;;5000928;28;20109;-83
2023/05/21 12:37:21;;;;;;;13.35;8.13;;;23.20;99.90;;;;;;5003640;28;20048;-83
2023/05/21 12:39:51;;;;;;;12.35;8.05;;;23.30;99.90;;;;;;5006606;28;20126;-83
2023/05/21 12:42:29;;;;;;;12.40;7.53;;;23.30;99.90;;;;;;5011857;28;20124;-83
2023/05/21 12:44:56;;;;;;;14.82;8.40;;;23.40;99.90;;;;;;5005398;28;20037;-82
2023/05/21 12:47:25;;;;;;;12.38;8.57;;;23.50;99.90;;;;;;4981979;28;20121;-83